Flight Track Log - Related Links

Times and Time Zones

All times are in EDT time to prevent confusion due to time zone crossing. See the SWA3294 flight status page for this flight to view local times or setup timezone preferences in your user account.

Time Position Orientation Groundspeed Altitude Reporting Facility
EDT Latitude Longitude Course Direction KTS MPH feet Rate Location/Type
Sat 08:49:17 PM 28.4167 -81.3000 156° South 170 196 500  Level Orlando TRACON
Sat 08:50:35 PM 28.3500 -81.2667 156° South 224 258 3,500 2,892 Climbing Orlando TRACON
Sat 08:51:36 PM 28.3000 -81.2333 150° Southeast 225 259 7,200 2,975 Climbing Orlando TRACON
Sat 08:52:36 PM 28.3167 -81.1667 74° East 317 365 9,500 2,444 Climbing Orlando TRACON
Sat 08:54:18 PM 28.4706 -81.2017 349° North 398 458 13,800 2,630 Climbing Jacksonville Center
Sat 08:55:18 PM 28.5733 -81.2331 345° North 377 434 16,600 2,650 Climbing Jacksonville Center
Sat 08:56:18 PM 28.6800 -81.2644 346° North 377 434 19,100 2,350 Climbing Jacksonville Center
Sat 08:57:18 PM 28.7892 -81.2983 345° North 388 447 21,300 2,300 Climbing Jacksonville Center
Sat 08:58:18 PM 28.9042 -81.3294 347° North 400 460 23,700 2,200 Climbing Jacksonville Center
Sat 08:59:18 PM 29.0175 -81.3681 343° North 427 491 25,700 1,767 Climbing Jacksonville Center
Sat 09:01:18 PM 29.2683 -81.4047 353° North 447 514 29,000 1,633 Climbing Jacksonville Center
Sat 09:02:18 PM 29.3958 -81.4194 354° North 457 526 30,600 1,650 Climbing Jacksonville Center
Sat 09:03:18 PM 29.5086 -81.4297 355° North 457 526 32,300 1,200 Climbing Jacksonville Center
Sat 09:04:18 PM 29.6403 -81.4444 354° North 463 533 33,000 350 Climbing Jacksonville Center
Sat 09:05:18 PM 29.7700 -81.4569 355° North 463 533 33,000  Level Jacksonville Center
Sat 09:06:18 PM 29.9017 -81.4694 355° North 463 533 33,000  Level Jacksonville Center
Sat 09:07:18 PM 30.0333 -81.4819 355° North 468 539 33,000  Level Jacksonville Center
Sat 09:08:18 PM 30.1650 -81.4919 356° North 468 539 33,000  Level Jacksonville Center
Sat 09:09:18 PM 30.2986 -81.5044 355° North 468 539 33,000  Level Jacksonville Center
Sat 09:10:18 PM 30.4322 -81.5025 North 468 539 33,000 750 Level Jacksonville Center
Sat 09:11:18 PM 30.5636 -81.4933 North 473 544 34,500 1,800 Climbing Jacksonville Center
Sat 09:12:18 PM 30.7056 -81.4792 North 473 544 36,600 1,800 Climbing Jacksonville Center
Sat 09:13:18 PM 30.8306 -81.4581 North 460 529 38,100 1,200 Climbing Jacksonville Center
Sat 09:14:18 PM 30.9514 -81.4392 North 454 522 39,000 450 Climbing Jacksonville Center
Sat 09:15:18 PM 31.0764 -81.4178 North 444 511 39,000  Level Jacksonville Center
Sat 09:16:18 PM 31.1994 -81.3989 North 431 496 39,000  Level Jacksonville Center
Sat 09:17:18 PM 31.3225 -81.3800 North 442 509 39,000  Level Jacksonville Center
Sat 09:18:18 PM 31.4328 -81.3586 North 442 509 39,000  Level Jacksonville Center
Sat 09:19:18 PM 31.5681 -81.3344 North 450 518 39,000  Level Jacksonville Center
Sat 09:20:18 PM 31.6808 -81.3178 North 445 512 39,000  Level Jacksonville Center
Sat 09:21:18 PM 31.8142 -81.2961 North 445 512 39,000  Level Jacksonville Center
Sat 09:22:18 PM 31.9286 -81.2794 North 445 512 39,000  Level Jacksonville Center
Sat 09:23:18 PM 32.0536 -81.2553 North 445 512 39,000  Level Jacksonville Center
Sat 09:24:18 PM 32.1767 -81.2358 North 445 512 39,000  Level Jacksonville Center
Sat 09:25:18 PM 32.2994 -81.2189 North 445 512 39,000  Level Jacksonville Center
Sat 09:26:18 PM 32.4392 -81.1967 North 445 512 39,000  Level Jacksonville Center
Sat 09:27:18 PM 32.5494 -81.1772 North 445 512 39,000  Level Jacksonville Center
Sat 09:28:18 PM 32.6725 -81.1675 North 445 512 39,000  Level Jacksonville Center
Sat 09:29:18 PM 32.7956 -81.1578 North 445 512 39,000  Level Jacksonville Center
Sat 09:30:18 PM 32.9228 -81.1503 North 445 512 39,000  Level Jacksonville Center
Sat 09:31:18 PM 33.0436 -81.1406 North 439 505 39,000  Level Jacksonville Center
Sat 09:32:18 PM 33.1686 -81.1258 North 439 505 39,000  Level Jacksonville Center
Sat 09:33:18 PM 33.2917 -81.1058 North 444 511 39,000  Level Jacksonville Center
Sat 09:34:18 PM 33.4269 -81.0808 North 444 511 39,000  Level Jacksonville Center
Sat 09:35:18 PM 33.5519 -81.0608 North 444 511 39,000  Level Jacksonville Center
Sat 09:37:16 PM 33.7925 -81.0092 10° North 458 527 39,000  Level Atlanta Center
Sat 09:38:16 PM 33.9172 -80.9900 North 458 527 39,000  Level Atlanta Center
Sat 09:39:16 PM 34.0422 -80.9803 North 452 520 39,000  Level Atlanta Center
Sat 09:40:16 PM 34.1631 -80.9736 North 445 512 39,000  Level Atlanta Center
Sat 09:41:16 PM 34.2942 -80.9611 North 440 506 39,000  Level Atlanta Center
Sat 09:42:16 PM 34.4128 -80.9519 North 440 506 39,000  Level Atlanta Center
Sat 09:43:16 PM 34.5378 -80.9422 North 441 507 39,000  Level Atlanta Center
Sat 09:44:16 PM 34.6603 -80.9175 North 441 507 39,000  Level Atlanta Center
Sat 09:45:16 PM 34.7850 -80.8925 North 446 513 39,000  Level Atlanta Center
Sat 09:46:16 PM 34.9092 -80.8575 13° North 446 513 39,000  Level Atlanta Center
Sat 09:47:16 PM 35.0169 -80.8306 12° North 446 513 39,000  Level Atlanta Center
Sat 09:48:16 PM 35.1433 -80.7978 12° North 452 520 39,000  Level Atlanta Center
Sat 09:49:16 PM 35.2658 -80.7675 11° North 452 520 39,000  Level Atlanta Center
Sat 09:50:16 PM 35.3881 -80.7372 11° North 447 514 39,000  Level Atlanta Center
Sat 09:51:16 PM 35.5144 -80.7017 13° North 447 514 39,000  Level Atlanta Center
Sat 09:52:16 PM 35.6386 -80.6708 11° North 447 514 39,000  Level Atlanta Center
Sat 09:53:16 PM 35.7631 -80.6403 11° North 447 514 39,000  Level Atlanta Center
Sat 09:54:16 PM 35.8872 -80.6094 11° North 447 514 39,000  Level Atlanta Center
Sat 09:55:16 PM 36.0197 -80.5756 12° North 452 520 39,000  Level Atlanta Center
Sat 09:56:16 PM 36.1461 -80.5444 11° North 444 511 39,000  Level Atlanta Center
Sat 09:57:16 PM 36.2725 -80.5131 11° North 450 518 39,000  Level Atlanta Center
Sat 09:59:42 PM 36.5625 -80.4433 11° North 464 534 39,000  Level Washington Center
Sat 10:00:40 PM 36.6892 -80.4125 11° North 450 518 39,000  Level Washington Center
Sat 10:01:40 PM 36.8136 -80.3786 12° North 450 518 39,000  Level Washington Center
Sat 10:02:42 PM 36.9506 -80.3431 12° North 455 524 39,000  Level Washington Center
Sat 10:03:41 PM 37.0769 -80.3117 11° North 455 524 39,000  Level Washington Center
Sat 10:04:40 PM 37.2056 -80.2778 12° North 449 517 39,000  Level Washington Center
Sat 10:05:40 PM 37.3300 -80.2464 11° North 449 517 39,000  Level Washington Center
Sat 10:06:40 PM 37.4458 -80.2167 12° North 456 525 39,000  Level Washington Center
Sat 10:07:40 PM 37.5764 -80.1828 12° North 456 525 39,000  Level Washington Center
Sat 10:08:40 PM 37.7028 -80.1511 11° North 456 525 39,000  Level Washington Center
Sat 10:09:41 PM 37.8272 -80.1167 12° North 456 525 39,000  Level Washington Center
Sat 10:10:42 PM 37.9536 -80.0847 11° North 456 525 39,000  Level Washington Center
Sat 10:11:41 PM 38.0947 -80.0456 12° North 456 525 39,000  Level Washington Center
Sat 10:12:41 PM 38.2211 -80.0108 12° North 456 525 39,000  Level Washington Center
Sat 10:13:42 PM 38.3494 -79.9789 11° North 456 525 39,000  Level Washington Center
Sat 10:14:42 PM 38.4719 -79.9411 14° North 456 525 39,000  Level Washington Center
Sat 10:15:40 PM 38.5897 -79.9108 11° North 456 525 39,000  Level Washington Center
Sat 10:16:40 PM 38.7139 -79.8781 12° North 456 525 39,000  Level Washington Center
Sat 10:17:39 PM 38.8425 -79.8428 12° North 456 525 39,000  Level Washington Center
Sat 10:19:21 PM 39.0681 -79.7758 13° North 459 528 39,000  Level Cleveland Center
Sat 10:20:21 PM 39.1947 -79.7394 13° North 459 528 39,000  Level Cleveland Center
Sat 10:21:21 PM 39.3197 -79.7056 12° North 459 528 39,000  Level Cleveland Center
Sat 10:22:21 PM 39.4486 -79.6692 12° North 464 534 39,000  Level Cleveland Center
Sat 10:23:21 PM 39.5733 -79.6325 13° North 464 534 39,000  Level Cleveland Center
Sat 10:24:21 PM 39.7003 -79.6011 11° North 464 534 39,000  Level Cleveland Center
Sat 10:25:21 PM 39.8228 -79.5642 13° North 464 534 39,000 -200 Level Cleveland Center
Sat 10:26:21 PM 39.9478 -79.5297 12° North 459 528 38,600 -650 Descending Cleveland Center
Sat 10:27:21 PM 40.0744 -79.4925 13° North 459 528 37,700 -900 Descending Cleveland Center
Sat 10:28:21 PM 40.2033 -79.4578 12° North 459 528 36,800 -950 Descending Cleveland Center
Sat 10:29:21 PM 40.3303 -79.4228 12° North 464 534 35,800 -900 Descending Cleveland Center
Sat 10:30:21 PM 40.4486 -79.3853 14° North 470 541 35,000 -400 Descending Cleveland Center
Sat 10:31:21 PM 40.5794 -79.3475 12° North 470 541 35,000 -100 Level Cleveland Center
Sat 10:32:21 PM 40.7125 -79.3122 11° North 475 547 34,800 -600 Descending Cleveland Center
Sat 10:33:21 PM 40.8433 -79.2711 13° North 475 547 33,800 -950 Descending Cleveland Center
Sat 10:34:21 PM 40.9764 -79.2328 12° North 481 554 32,900 -950 Descending Cleveland Center
Sat 10:35:21 PM 41.1053 -79.1969 12° North 481 554 31,900 -1,000 Descending Cleveland Center
Sat 10:36:21 PM 41.2319 -79.1611 12° North 475 547 30,900 -1,000 Descending Cleveland Center
Sat 10:37:21 PM 41.3544 -79.1225 13° North 457 526 29,900 -1,000 Descending Cleveland Center
Sat 10:38:21 PM 41.4769 -79.0894 11° North 447 514 28,900 -1,000 Descending Cleveland Center
Sat 10:39:21 PM 41.5933 -79.0533 13° North 442 509 27,900 -1,050 Descending Cleveland Center
Sat 10:40:21 PM 41.7242 -79.0142 13° North 437 503 26,800 -1,050 Descending Cleveland Center
Sat 10:41:21 PM 41.8383 -78.9806 12° North 427 491 25,800 -950 Descending Cleveland Center
Sat 10:42:21 PM 41.9381 -78.9503 13° North 422 486 24,900 -1,100 Descending Cleveland Center
Sat 10:43:21 PM 42.0481 -78.9167 13° North 409 471 23,600 -1,686 Descending Cleveland Center
Sat 10:44:22 PM 42.1517 -78.8858 12° North 398 458 21,500 -2,150 Descending Cleveland Center
Sat 10:45:21 PM 42.2658 -78.8492 13° North 387 445 19,300 -2,017 Descending Cleveland Center
Sat 10:46:21 PM 42.3633 -78.8214 12° North 373 429 17,500 -1,950 Descending Cleveland Center
Sat 10:47:21 PM 42.4589 -78.7906 13° North 365 420 15,400 -2,200 Descending Cleveland Center
Sat 10:48:21 PM 42.5564 -78.7622 12° North 353 406 13,100 -2,450 Descending Cleveland Center
Sat 10:49:21 PM 42.6539 -78.7314 13° North 353 406 10,500 -1,750 Descending Cleveland Center
Sat 10:50:21 PM 42.7431 -78.7089 10° North 343 395 9,600 -1,350 Descending Cleveland Center
Sat 10:51:21 PM 42.8136 -78.6925 10° North 306 352 7,800 -1,800 Descending Cleveland Center
Sat 10:52:21 PM 42.8861 -78.6592 19° North 281 323 6,000 -1,650 Descending Cleveland Center
Sat 10:53:21 PM 42.9536 -78.5919 36° Northeast 268 308 4,500 -1,200 Descending Cleveland Center
Sat 10:54:21 PM 43.0075 -78.5647 20° North 228 262 3,600 -963 Descending Cleveland Center
Sat 10:56:03 PM 43.0000 -78.6500 263° West 152 175 1,900 -889 Descending Buffalo TRACON
Sat 10:57:03 PM 42.9667 -78.7000 228° Southwest 134 154 1,200 -700 Descending Buffalo TRACON

Login

Don't have an account? Register now (free) for customized features, flight alerts, and more!